Time;durP1;ratioP1;P1;durP2;ratioP2;P2;SDS_P1;SDS_P2;PMS_P1;PMS_P2;Temp;Humidity;BMP_temperature;BMP_pressure;BME280_temperature;BME280_humidity;BME280_pressure;Samples;Min_cycle;Max_cycle;Signal;HPM_P1;HPM_P2
2022/12/12 00:00:52;;;;;;;31.23;15.77;;;-0.30;99.90;;;;;;5027634;28;20211;-70
2022/12/12 00:03:18;;;;;;;27.93;14.83;;;-0.30;99.90;;;;;;5025102;28;20207;-70
2022/12/12 00:05:44;;;;;;;29.33;14.47;;;-0.30;99.90;;;;;;5026782;28;20701;-70
2022/12/12 00:08:10;;;;;;;29.10;15.23;;;-0.30;99.90;;;;;;5026710;28;20219;-70
2022/12/12 00:10:35;;;;;;;27.00;15.20;;;-0.30;99.90;;;;;;5022582;28;20204;-69
2022/12/12 00:13:02;;;;;;;29.97;15.87;;;-0.40;99.90;;;;;;5027421;28;20237;-70
2022/12/12 00:15:27;;;;;;;30.03;14.30;;;-0.40;99.90;;;;;;5026336;28;20234;-70
2022/12/12 00:17:53;;;;;;;30.60;14.90;;;-0.40;99.90;;;;;;5024890;28;20773;-69
2022/12/12 00:20:19;;;;;;;32.27;16.67;;;-0.50;99.90;;;;;;5028458;28;20293;-70
2022/12/12 00:22:45;;;;;;;29.23;15.33;;;-0.50;99.90;;;;;;5026405;28;20212;-70
2022/12/12 00:25:11;;;;;;;32.33;15.00;;;-0.50;99.90;;;;;;5026810;28;20221;-68
2022/12/12 00:27:37;;;;;;;30.43;15.10;;;-0.50;99.90;;;;;;5031385;28;20295;-70
2022/12/12 00:30:03;;;;;;;30.70;14.83;;;-0.30;99.90;;;;;;5024385;28;20178;-69
2022/12/12 00:32:29;;;;;;;33.27;15.77;;;-0.40;99.90;;;;;;5030137;28;20241;-70
2022/12/12 00:34:55;;;;;;;25.63;14.57;;;-0.50;99.90;;;;;;5031667;28;20214;-69
2022/12/12 00:37:21;;;;;;;32.63;14.83;;;-0.40;99.90;;;;;;5024684;28;20300;-70
2022/12/12 00:39:46;;;;;;;28.73;14.97;;;-0.40;99.90;;;;;;5029920;28;20763;-68
2022/12/12 00:42:12;;;;;;;30.77;14.83;;;-0.40;99.90;;;;;;5031929;28;20305;-69
2022/12/12 00:44:38;;;;;;;32.23;15.40;;;-0.40;99.90;;;;;;5028358;28;20553;-70
2022/12/12 00:47:04;;;;;;;29.23;15.03;;;-0.70;99.90;;;;;;5029376;28;20264;-70
2022/12/12 00:49:29;;;;;;;35.63;15.87;;;-0.40;99.90;;;;;;5028773;28;20293;-69
2022/12/12 00:51:55;;;;;;;31.80;14.67;;;-0.40;99.90;;;;;;5027428;28;20301;-69
2022/12/12 00:54:21;;;;;;;30.87;15.27;;;-0.40;99.90;;;;;;5030096;28;20191;-70
2022/12/12 00:56:46;;;;;;;32.40;15.40;;;-0.50;99.90;;;;;;5028613;28;20206;-69
2022/12/12 00:59:13;;;;;;;32.57;15.40;;;-0.40;99.90;;;;;;5026407;28;20246;-70
2022/12/12 01:01:39;;;;;;;37.67;16.53;;;-0.50;99.90;;;;;;5031583;28;20222;-70
2022/12/12 01:04:05;;;;;;;31.93;15.67;;;-0.50;99.90;;;;;;5024470;28;20210;-70
2022/12/12 01:06:31;;;;;;;31.97;15.13;;;-0.40;99.90;;;;;;5028709;28;20216;-70
2022/12/12 01:08:57;;;;;;;33.10;15.57;;;-0.30;99.90;;;;;;5030081;28;20177;-70
2022/12/12 01:11:23;;;;;;;33.77;16.13;;;-0.30;99.90;;;;;;5023604;28;20207;-70
2022/12/12 01:13:50;;;;;;;33.90;15.87;;;-0.30;99.90;;;;;;5029303;28;20214;-69
2022/12/12 01:16:16;;;;;;;33.43;16.43;;;-0.30;99.90;;;;;;5028133;28;20585;-70
2022/12/12 01:18:42;;;;;;;35.60;15.57;;;-0.40;99.90;;;;;;5027733;28;20567;-70
2022/12/12 01:21:10;;;;;;;36.97;16.27;;;-0.30;99.90;;;;;;5028920;28;20186;-68
2022/12/12 01:23:35;;;;;;;30.60;15.80;;;-0.30;99.90;;;;;;5026911;28;20221;-70
2022/12/12 01:26:04;;;;;;;33.67;15.20;;;-0.30;99.90;;;;;;5027473;28;20633;-70
2022/12/12 01:28:30;;;;;;;31.10;14.87;;;-0.30;99.90;;;;;;5028986;28;20201;-70
2022/12/12 01:30:55;;;;;;;37.90;16.60;;;-0.30;99.90;;;;;;5024168;28;20215;-70
2022/12/12 01:33:21;;;;;;;33.50;14.73;;;-0.20;99.90;;;;;;5025737;28;20180;-70
2022/12/12 01:35:47;;;;;;;32.30;14.67;;;-0.40;99.90;;;;;;5030703;28;20635;-70
2022/12/12 01:38:12;;;;;;;34.10;15.20;;;-0.30;99.90;;;;;;5023071;28;20599;-70
2022/12/12 01:40:38;;;;;;;32.17;15.20;;;-0.20;99.90;;;;;;5028385;28;20216;-70
2022/12/12 01:43:12;;;;;;;32.27;15.50;;;-0.30;99.90;;;;;;5029531;28;20221;-70
2022/12/12 01:45:56;;;;;;;38.03;16.13;;;-0.30;99.90;;;;;;5026034;28;20365;-70
2022/12/12 01:48:25;;;;;;;33.13;15.40;;;-0.30;99.90;;;;;;5029669;28;20182;-70
2022/12/12 01:50:51;;;;;;;34.60;15.90;;;-0.30;99.90;;;;;;5021113;28;20190;-70
2022/12/12 01:53:19;;;;;;;34.20;15.03;;;-0.30;99.90;;;;;;5025508;28;20265;-68
2022/12/12 01:55:49;;;;;;;33.47;15.67;;;-0.20;99.90;;;;;;5031177;28;20200;-70
2022/12/12 01:58:15;;;;;;;33.97;16.40;;;-0.40;99.90;;;;;;5022378;28;20207;-70
2022/12/12 02:00:42;;;;;;;29.77;14.60;;;-0.50;99.90;;;;;;5027502;28;20219;-70
2022/12/12 02:03:08;;;;;;;32.27;15.17;;;-0.30;99.90;;;;;;5028647;28;20209;-70
2022/12/12 02:05:36;;;;;;;32.47;15.33;;;-0.30;99.90;;;;;;5027340;28;20203;-70
2022/12/12 02:08:04;;;;;;;33.87;15.43;;;-0.40;99.90;;;;;;5027580;28;20211;-70
2022/12/12 02:10:30;;;;;;;33.07;14.77;;;-0.30;99.90;;;;;;5026998;28;20724;-70
2022/12/12 02:13:05;;;;;;;33.23;14.97;;;-0.30;99.90;;;;;;5025887;28;20298;-69
2022/12/12 02:16:02;;;;;;;36.57;16.57;;;-0.30;99.90;;;;;;5026154;28;20228;-70
2022/12/12 02:18:50;;;;;;;31.93;15.13;;;-0.40;99.90;;;;;;5023505;28;20183;-70
2022/12/12 02:21:15;;;;;;;33.20;14.67;;;-0.30;99.90;;;;;;5025607;28;20176;-70
2022/12/12 02:23:43;;;;;;;31.73;13.47;;;-0.30;99.90;;;;;;5027865;28;20205;-70
2022/12/12 02:26:42;;;;;;;31.77;14.67;;;-0.30;99.90;;;;;;5023486;28;20287;-69
2022/12/12 02:29:30;;;;;;;32.27;15.17;;;-0.20;99.90;;;;;;5028398;28;20788;-70
2022/12/12 02:32:01;;;;;;;32.17;14.60;;;-0.30;99.90;;;;;;5021422;28;20204;-70
2022/12/12 02:34:52;;;;;;;29.53;14.70;;;-0.30;99.90;;;;;;5025737;28;20211;-70
2022/12/12 02:37:18;;;;;;;32.07;14.27;;;-0.20;99.90;;;;;;5026932;28;20275;-71
2022/12/12 02:40:02;;;;;;;34.87;15.57;;;-0.20;99.90;;;;;;5024871;28;20821;-69
2022/12/12 02:42:48;;;;;;;36.07;16.57;;;-0.30;99.90;;;;;;5029094;28;20562;-70
2022/12/12 02:45:35;;;;;;;36.03;16.07;;;-0.10;99.90;;;;;;5019291;28;20185;-69
2022/12/12 02:48:33;;;;;;;30.07;14.00;;;-0.20;99.90;;;;;;5029359;28;20174;-69
2022/12/12 02:51:01;;;;;;;33.70;15.53;;;-0.10;99.90;;;;;;5022825;28;20225;-69
2022/12/12 02:53:27;;;;;;;35.87;15.20;;;-0.20;99.90;;;;;;5024627;28;20321;-70
2022/12/12 02:56:03;;;;;;;38.20;15.50;;;-0.20;99.90;;;;;;5027547;28;20651;-67
2022/12/12 02:58:29;;;;;;;32.73;14.90;;;-0.20;99.90;;;;;;5026493;28;20209;-70
2022/12/12 03:01:12;;;;;;;36.43;15.50;;;-0.20;99.90;;;;;;5025433;28;20220;-68
2022/12/12 03:09:49;;;;;;;30.83;14.87;;;-0.10;99.90;;;;;;5011346;28;20695;-70
2022/12/12 03:12:36;;;;;;;37.20;15.63;;;-0.10;99.90;;;;;;5020699;28;20174;-70
2022/12/12 03:15:07;;;;;;;32.93;15.33;;;-0.10;99.90;;;;;;5028204;28;20167;-69
2022/12/12 03:18:23;;;;;;;33.07;15.30;;;-0.10;99.90;;;;;;5026430;28;20213;-70
2022/12/12 03:21:00;;;;;;;32.03;15.13;;;-0.10;99.90;;;;;;4966393;28;20304;-70
2022/12/12 03:23:49;;;;;;;38.73;16.63;;;-0.10;99.90;;;;;;4968703;28;20379;-70
2022/12/12 03:26:38;;;;;;;36.87;14.57;;;0.00;99.90;;;;;;5018305;28;20208;-70
2022/12/12 03:29:08;;;;;;;31.60;14.70;;;-0.10;99.90;;;;;;5047843;28;20198;-70
2022/12/12 03:31:39;;;;;;;34.73;14.90;;;-0.10;99.90;;;;;;5046468;28;20590;-70
2022/12/12 03:34:18;;;;;;;37.90;16.00;;;-0.20;99.90;;;;;;5047100;28;20585;-70
2022/12/12 03:37:06;;;;;;;34.53;15.10;;;0.10;99.90;;;;;;5043346;28;20783;-70
2022/12/12 03:39:44;;;;;;;34.27;15.97;;;0.00;99.90;;;;;;5033369;28;20219;-70
2022/12/12 03:42:22;;;;;;;36.30;15.40;;;0.00;99.90;;;;;;5033345;28;20224;-70
2022/12/12 03:44:54;;;;;;;34.43;14.17;;;0.10;99.90;;;;;;5046728;28;20193;-70
2022/12/12 03:47:28;;;;;;;35.77;15.13;;;0.00;99.90;;;;;;5042822;28;20211;-70
2022/12/12 03:50:01;;;;;;;36.37;15.47;;;0.20;99.90;;;;;;5047930;28;20217;-69
2022/12/12 03:52:35;;;;;;;34.87;15.33;;;0.10;99.90;;;;;;5043612;28;20243;-70
2022/12/12 03:55:13;;;;;;;36.47;15.87;;;0.00;99.90;;;;;;5039498;28;20225;-68
2022/12/12 03:57:48;;;;;;;35.10;15.83;;;0.10;99.90;;;;;;5032748;28;20214;-70
2022/12/12 04:00:15;;;;;;;36.07;15.37;;;0.10;99.90;;;;;;5043325;28;20259;-70
2022/12/12 04:02:55;;;;;;;36.77;15.63;;;0.00;99.90;;;;;;5053851;28;20213;-70
2022/12/12 04:05:34;;;;;;;36.00;15.60;;;0.20;99.90;;;;;;5035392;28;20553;-70
2022/12/12 04:08:14;;;;;;;36.87;16.27;;;0.20;99.90;;;;;;5048412;28;20203;-69
2022/12/12 04:13:54;;;;;;;32.80;14.90;;;0.10;99.90;;;;;;5052531;28;20240;-69
2022/12/12 04:16:28;;;;;;;33.47;14.53;;;0.20;99.90;;;;;;5051482;28;20206;-69
2022/12/12 04:19:08;;;;;;;34.40;15.10;;;0.20;99.90;;;;;;5049767;28;20208;-71
2022/12/12 04:24:59;;;;;;;31.93;13.87;;;0.20;99.90;;;;;;5050853;28;20288;-70
2022/12/12 04:27:36;;;;;;;28.73;12.87;;;0.30;99.90;;;;;;5052916;28;20274;-70
2022/12/12 04:30:14;;;;;;;24.97;12.13;;;0.30;99.90;;;;;;5050091;28;20192;-70
2022/12/12 04:32:57;;;;;;;26.87;13.63;;;0.20;99.90;;;;;;5053997;28;20208;-70
2022/12/12 04:35:33;;;;;;;28.47;13.13;;;0.30;99.90;;;;;;5050838;28;20223;-70
2022/12/12 04:38:06;;;;;;;26.40;12.80;;;0.50;99.90;;;;;;5049705;28;20219;-69
2022/12/12 04:40:35;;;;;;;26.47;13.30;;;0.40;99.90;;;;;;5051987;28;20359;-70
2022/12/12 04:43:07;;;;;;;25.43;12.73;;;0.40;99.90;;;;;;5052808;28;20426;-70
2022/12/12 04:45:46;;;;;;;25.67;12.13;;;0.40;99.90;;;;;;5052365;28;20222;-70
2022/12/12 04:48:19;;;;;;;27.73;12.17;;;0.30;99.90;;;;;;5051836;28;20225;-70
2022/12/12 04:50:48;;;;;;;28.83;13.63;;;0.40;99.90;;;;;;5052536;28;20181;-70
2022/12/12 04:53:18;;;;;;;24.60;11.50;;;0.50;99.90;;;;;;5052347;28;20294;-70
2022/12/12 04:55:49;;;;;;;25.77;12.53;;;0.60;99.90;;;;;;5035687;28;20680;-70
2022/12/12 04:58:16;;;;;;;27.10;12.90;;;0.60;99.90;;;;;;5037033;28;20230;-70
2022/12/12 05:00:52;;;;;;;27.27;13.47;;;0.40;99.90;;;;;;5048777;28;20214;-70
2022/12/12 05:03:48;;;;;;;24.77;12.77;;;0.50;99.90;;;;;;5050484;28;20214;-70
2022/12/12 05:06:18;;;;;;;21.57;12.07;;;0.50;99.90;;;;;;5051182;28;20201;-70
2022/12/12 05:08:47;;;;;;;23.53;12.33;;;0.50;99.90;;;;;;5049514;28;20662;-71
2022/12/12 05:11:14;;;;;;;20.97;10.83;;;0.40;99.90;;;;;;5051151;28;20230;-70
2022/12/12 05:13:41;;;;;;;19.87;11.33;;;0.40;99.90;;;;;;5052337;28;20222;-68
2022/12/12 05:16:36;;;;;;;18.47;9.90;;;0.40;99.90;;;;;;5050391;28;20353;-67
2022/12/12 05:19:02;;;;;;;17.97;10.00;;;0.30;99.90;;;;;;5049855;28;20230;-70
2022/12/12 05:21:27;;;;;;;18.30;9.77;;;0.40;99.90;;;;;;5046835;28;20179;-71
2022/12/12 05:23:53;;;;;;;15.53;9.30;;;0.40;99.90;;;;;;5052150;28;20171;-69
2022/12/12 05:26:26;;;;;;;17.43;9.57;;;0.50;99.90;;;;;;5048660;28;20342;-70
2022/12/12 05:28:52;;;;;;;18.83;8.87;;;0.30;99.90;;;;;;5052136;28;20214;-70
2022/12/12 05:31:18;;;;;;;15.13;8.80;;;0.40;99.90;;;;;;5050403;28;20202;-70
2022/12/12 05:33:44;;;;;;;15.23;8.30;;;0.50;99.90;;;;;;5051918;28;20239;-70
2022/12/12 05:36:10;;;;;;;14.70;8.33;;;0.40;99.90;;;;;;5051107;28;20215;-70
2022/12/12 05:38:36;;;;;;;14.47;7.43;;;0.50;99.90;;;;;;5052203;28;20179;-69
2022/12/12 05:41:02;;;;;;;13.27;7.30;;;0.60;99.90;;;;;;5050710;28;20206;-70
2022/12/12 05:43:28;;;;;;;13.13;7.90;;;0.50;99.90;;;;;;5051421;28;20230;-70
2022/12/12 05:45:54;;;;;;;13.37;6.93;;;0.60;99.90;;;;;;5048410;28;20223;-68
2022/12/12 05:48:19;;;;;;;15.77;7.50;;;0.60;99.90;;;;;;5051441;28;20195;-70
2022/12/12 05:50:45;;;;;;;12.20;7.03;;;0.50;99.90;;;;;;5050916;28;20185;-70
2022/12/12 05:53:11;;;;;;;10.70;7.03;;;0.50;99.90;;;;;;5050997;28;20223;-70
2022/12/12 05:55:36;;;;;;;12.60;6.90;;;0.50;99.90;;;;;;5051249;28;20210;-70
2022/12/12 05:58:02;;;;;;;11.03;6.53;;;0.50;99.90;;;;;;5051211;28;20211;-71
2022/12/12 06:00:28;;;;;;;10.17;6.30;;;0.50;99.90;;;;;;5050127;28;20222;-70
2022/12/12 06:02:54;;;;;;;10.90;6.23;;;0.60;99.90;;;;;;5051491;28;20577;-70
2022/12/12 06:05:20;;;;;;;11.30;6.53;;;0.60;99.90;;;;;;5051146;28;20206;-70
2022/12/12 06:07:45;;;;;;;9.93;6.20;;;0.60;99.90;;;;;;5050969;28;20224;-70
2022/12/12 06:10:12;;;;;;;10.50;6.07;;;0.70;99.90;;;;;;5036795;28;20684;-70
2022/12/12 06:12:38;;;;;;;9.67;6.10;;;0.60;99.90;;;;;;5034048;28;20280;-70
2022/12/12 06:15:04;;;;;;;10.10;6.77;;;0.50;99.90;;;;;;5042520;28;20206;-70
2022/12/12 06:17:30;;;;;;;8.27;5.50;;;0.50;99.90;;;;;;5029286;28;20232;-70
2022/12/12 06:19:55;;;;;;;9.50;5.83;;;0.50;99.90;;;;;;5040291;28;20201;-70
2022/12/12 06:22:21;;;;;;;8.67;6.20;;;0.50;99.90;;;;;;5043361;28;20214;-68
2022/12/12 06:24:47;;;;;;;10.43;6.13;;;0.50;99.90;;;;;;5043302;28;20223;-70
2022/12/12 06:27:12;;;;;;;12.57;5.97;;;0.60;99.90;;;;;;5025003;28;20941;-70
2022/12/12 06:29:38;;;;;;;7.70;5.27;;;0.50;99.90;;;;;;5029390;28;20193;-69
2022/12/12 06:32:04;;;;;;;8.17;5.70;;;0.40;99.90;;;;;;5030180;28;20200;-69
2022/12/12 06:34:30;;;;;;;9.80;5.73;;;0.50;99.90;;;;;;5024913;28;20698;-70
2022/12/12 06:36:55;;;;;;;9.97;6.73;;;0.60;99.90;;;;;;5026482;28;20228;-70
2022/12/12 06:39:21;;;;;;;8.80;6.13;;;0.50;99.90;;;;;;5029174;28;20180;-70
2022/12/12 06:41:46;;;;;;;8.77;6.07;;;0.50;99.90;;;;;;5026004;28;20189;-70
2022/12/12 06:44:12;;;;;;;8.73;5.70;;;0.50;99.90;;;;;;5027608;28;20211;-70
2022/12/12 06:46:38;;;;;;;10.77;6.30;;;0.50;99.90;;;;;;5027099;28;20227;-70
2022/12/12 06:49:08;;;;;;;7.00;5.33;;;0.40;99.90;;;;;;5023571;28;20218;-70
2022/12/12 06:51:37;;;;;;;8.37;6.00;;;0.40;99.90;;;;;;5024612;28;20210;-70
2022/12/12 06:54:03;;;;;;;9.63;5.87;;;0.50;99.90;;;;;;5029089;28;20177;-70
2022/12/12 06:56:30;;;;;;;9.80;6.13;;;0.50;99.90;;;;;;5022019;28;20706;-70
2022/12/12 06:58:58;;;;;;;10.23;6.00;;;0.50;99.90;;;;;;5027773;28;20217;-70
2022/12/12 07:01:24;;;;;;;9.33;6.20;;;0.40;99.90;;;;;;5023593;28;20593;-70
2022/12/12 07:03:51;;;;;;;10.10;6.53;;;0.40;99.90;;;;;;5026197;28;20227;-70
2022/12/12 07:06:19;;;;;;;11.37;7.23;;;0.50;99.90;;;;;;5027496;28;20207;-70
2022/12/12 07:08:45;;;;;;;11.00;7.30;;;0.50;99.90;;;;;;5025832;28;20180;-69
2022/12/12 07:11:13;;;;;;;9.93;6.53;;;0.50;99.90;;;;;;5025786;28;20221;-71
2022/12/12 07:13:39;;;;;;;10.37;6.00;;;0.50;99.90;;;;;;5026283;28;21154;-70
2022/12/12 07:16:05;;;;;;;9.97;5.97;;;0.50;99.90;;;;;;5022716;28;20229;-70
2022/12/12 07:18:31;;;;;;;8.20;5.43;;;0.40;99.90;;;;;;5027546;28;20208;-70
2022/12/12 07:20:57;;;;;;;10.87;6.43;;;0.60;99.90;;;;;;5025324;28;20196;-69
2022/12/12 07:23:22;;;;;;;7.30;5.60;;;0.50;99.90;;;;;;5023541;28;20700;-70
2022/12/12 07:25:48;;;;;;;9.23;6.33;;;0.50;99.90;;;;;;5028020;28;20740;-69
2022/12/12 07:28:14;;;;;;;10.37;5.80;;;0.50;99.90;;;;;;5029855;28;20230;-70
2022/12/12 07:30:45;;;;;;;9.87;6.30;;;0.50;99.90;;;;;;5025371;28;20302;-70
2022/12/12 07:33:12;;;;;;;9.60;6.40;;;0.50;99.90;;;;;;5028599;28;20218;-70
2022/12/12 07:35:38;;;;;;;7.03;5.47;;;0.50;99.90;;;;;;5028382;28;20266;-70
2022/12/12 07:38:04;;;;;;;9.97;5.83;;;0.60;99.90;;;;;;5029139;28;20290;-70
2022/12/12 07:40:31;;;;;;;11.30;6.13;;;0.50;99.90;;;;;;5028888;28;20207;-72
2022/12/12 07:42:58;;;;;;;10.37;6.30;;;0.50;99.90;;;;;;5027415;28;20223;-69
2022/12/12 07:45:24;;;;;;;7.60;5.60;;;0.60;99.90;;;;;;5032114;28;20202;-69
2022/12/12 07:47:51;;;;;;;10.03;6.57;;;0.50;99.90;;;;;;5030318;28;20199;-69
2022/12/12 07:50:16;;;;;;;8.33;5.80;;;0.50;99.90;;;;;;5025562;28;20214;-70
2022/12/12 07:52:43;;;;;;;8.70;5.83;;;0.40;99.90;;;;;;5031768;28;20203;-70
2022/12/12 07:55:09;;;;;;;9.80;6.17;;;0.40;99.90;;;;;;5027953;28;20600;-70
2022/12/12 07:57:38;;;;;;;9.07;6.23;;;0.60;99.90;;;;;;5029086;28;20245;-71
2022/12/12 08:00:06;;;;;;;7.83;5.73;;;0.60;99.90;;;;;;5031525;28;20193;-71
2022/12/12 08:02:32;;;;;;;6.93;4.93;;;0.60;99.90;;;;;;5027578;28;20214;-69
2022/12/12 08:04:57;;;;;;;8.00;5.10;;;0.60;99.90;;;;;;5029011;28;20299;-70
2022/12/12 08:07:23;;;;;;;9.80;5.30;;;0.60;99.90;;;;;;5029155;28;20291;-70
2022/12/12 08:09:49;;;;;;;7.93;5.23;;;0.50;99.90;;;;;;5028398;28;20201;-69
2022/12/12 08:12:14;;;;;;;11.13;5.77;;;0.60;99.90;;;;;;5028811;28;20496;-70
2022/12/12 08:14:40;;;;;;;12.00;6.50;;;0.60;99.90;;;;;;5029919;28;20180;-70
2022/12/12 08:17:06;;;;;;;9.03;5.43;;;0.50;99.90;;;;;;5025852;28;20316;-69
2022/12/12 08:19:32;;;;;;;8.10;5.87;;;0.60;99.90;;;;;;5025556;28;20202;-70
2022/12/12 08:21:57;;;;;;;9.73;5.50;;;0.60;99.90;;;;;;5029059;28;20215;-69
2022/12/12 08:24:23;;;;;;;9.37;6.43;;;0.60;99.90;;;;;;5027249;28;20239;-70
2022/12/12 08:26:50;;;;;;;6.50;5.23;;;0.70;99.90;;;;;;5032081;28;20224;-70
2022/12/12 08:29:16;;;;;;;7.90;5.17;;;0.60;99.90;;;;;;5026210;28;20201;-68
2022/12/12 08:31:42;;;;;;;8.47;5.63;;;0.60;99.90;;;;;;5029313;28;20279;-70
2022/12/12 08:34:08;;;;;;;9.40;4.73;;;0.60;99.90;;;;;;5029899;28;20562;-70
2022/12/12 08:36:34;;;;;;;7.63;5.47;;;0.60;99.90;;;;;;5025856;28;20223;-70
2022/12/12 08:39:08;;;;;;;7.23;5.03;;;0.60;99.90;;;;;;5028753;28;20659;-69
2022/12/12 08:41:36;;;;;;;9.37;5.27;;;0.70;99.90;;;;;;5048830;28;20283;-70
2022/12/12 08:44:02;;;;;;;10.20;5.77;;;0.60;99.90;;;;;;5045458;28;20218;-69
2022/12/12 08:46:28;;;;;;;7.67;5.40;;;0.70;99.90;;;;;;5050404;28;20202;-69
2022/12/12 08:48:54;;;;;;;7.23;5.27;;;0.70;99.90;;;;;;5047549;28;20379;-69
2022/12/12 08:51:19;;;;;;;7.43;5.17;;;0.70;99.90;;;;;;5045545;28;20176;-69
2022/12/12 08:53:47;;;;;;;7.83;5.50;;;0.80;99.90;;;;;;5052047;28;20179;-70
2022/12/12 08:56:13;;;;;;;7.00;4.87;;;0.70;99.90;;;;;;5046233;28;20212;-70
2022/12/12 08:58:39;;;;;;;6.83;4.40;;;0.90;99.90;;;;;;5050535;28;20301;-70
2022/12/12 09:01:23;;;;;;;7.10;4.47;;;0.70;99.90;;;;;;5048414;28;20297;-70
2022/12/12 09:03:50;;;;;;;9.30;5.13;;;0.80;99.90;;;;;;5043275;28;20487;-69
2022/12/12 09:06:16;;;;;;;6.87;4.73;;;0.80;99.90;;;;;;5047909;28;20200;-69
2022/12/12 09:08:42;;;;;;;5.47;4.13;;;0.80;99.90;;;;;;5049303;28;20178;-70
2022/12/12 09:11:09;;;;;;;6.63;4.60;;;0.80;99.90;;;;;;5044219;28;20221;-69
2022/12/12 09:13:35;;;;;;;7.17;4.73;;;0.90;99.90;;;;;;5050138;28;20221;-70
2022/12/12 09:16:02;;;;;;;7.60;5.30;;;0.90;99.90;;;;;;5047093;28;20207;-70
2022/12/12 09:18:27;;;;;;;7.13;5.03;;;0.90;99.90;;;;;;5046835;28;20263;-69
2022/12/12 09:20:56;;;;;;;7.37;4.47;;;0.80;99.90;;;;;;5048671;28;20704;-70
2022/12/12 09:23:23;;;;;;;7.37;4.30;;;1.00;99.90;;;;;;5045957;28;20212;-69
2022/12/12 09:25:49;;;;;;;5.63;4.10;;;0.90;99.90;;;;;;5048214;28;20203;-70
2022/12/12 09:28:17;;;;;;;6.67;4.50;;;0.80;99.90;;;;;;5046148;28;20283;-69
2022/12/12 09:30:42;;;;;;;7.97;4.43;;;0.80;99.90;;;;;;5045004;28;20206;-69
2022/12/12 09:33:08;;;;;;;8.23;4.73;;;0.90;99.90;;;;;;5047930;28;20258;-69
2022/12/12 09:35:34;;;;;;;8.70;4.60;;;0.90;99.90;;;;;;5048339;28;20219;-69
2022/12/12 09:38:00;;;;;;;7.33;4.40;;;1.00;99.90;;;;;;5045189;28;20663;-69
2022/12/12 09:40:32;;;;;;;6.27;4.07;;;0.90;99.90;;;;;;5048419;28;20310;-69
2022/12/12 09:42:58;;;;;;;5.77;3.90;;;0.90;99.90;;;;;;5047314;28;20257;-70
2022/12/12 09:45:25;;;;;;;5.40;4.53;;;0.80;99.90;;;;;;5045515;28;20220;-70
2022/12/12 09:47:59;;;;;;;5.50;3.80;;;0.90;99.90;;;;;;5051424;28;20645;-70
2022/12/12 09:50:35;;;;;;;7.30;4.23;;;0.90;99.90;;;;;;5043274;28;20266;-70
2022/12/12 09:53:05;;;;;;;7.90;5.43;;;0.90;99.90;;;;;;5048673;28;20740;-69
2022/12/12 09:55:43;;;;;;;5.33;4.17;;;1.00;99.90;;;;;;5050248;28;20211;-69
2022/12/12 09:58:34;;;;;;;5.23;3.83;;;1.00;99.90;;;;;;5045463;28;20597;-70
2022/12/12 10:01:24;;;;;;;5.53;4.30;;;1.10;99.90;;;;;;5047040;28;20281;-69
2022/12/12 10:03:58;;;;;;;6.57;4.63;;;1.20;99.90;;;;;;5041056;28;20215;-69
2022/12/12 10:06:29;;;;;;;5.83;4.33;;;1.30;99.90;;;;;;5048111;28;20281;-70
2022/12/12 10:09:11;;;;;;;10.60;7.00;;;1.30;99.90;;;;;;5047119;28;20192;-69
2022/12/12 10:11:49;;;;;;;5.07;4.10;;;1.30;99.90;;;;;;5046775;28;20231;-69
2022/12/12 10:14:20;;;;;;;5.50;4.40;;;1.30;99.90;;;;;;5047610;28;20578;-70
2022/12/12 10:16:47;;;;;;;7.20;4.37;;;1.30;99.90;;;;;;5051054;28;20222;-69
2022/12/12 10:19:27;;;;;;;5.60;4.27;;;1.30;99.90;;;;;;5044060;28;20749;-69
2022/12/12 10:22:00;;;;;;;10.30;4.77;;;1.40;99.90;;;;;;5048868;28;20211;-67
2022/12/12 10:24:38;;;;;;;5.40;4.00;;;1.50;99.90;;;;;;5042690;28;20186;-68
2022/12/12 10:27:09;;;;;;;7.03;4.57;;;1.30;99.90;;;;;;5045103;28;20250;-68
2022/12/12 10:29:36;;;;;;;9.03;3.90;;;1.30;99.90;;;;;;5046309;28;21074;-69
2022/12/12 10:32:33;;;;;;;5.43;4.23;;;1.30;99.90;;;;;;5047736;28;20219;-68
2022/12/12 10:35:12;;;;;;;5.67;3.90;;;1.20;99.90;;;;;;5016152;28;20735;-69
2022/12/12 10:38:16;;;;;;;5.50;3.83;;;1.20;99.90;;;;;;5044254;28;20230;-69
2022/12/12 10:40:57;;;;;;;6.10;4.37;;;1.20;99.90;;;;;;5044129;28;20230;-69
2022/12/12 10:43:45;;;;;;;5.53;4.53;;;1.20;99.90;;;;;;5044601;28;20224;-69
2022/12/12 10:46:20;;;;;;;6.13;4.57;;;1.10;99.90;;;;;;5043214;28;20301;-69
2022/12/12 10:48:47;;;;;;;6.30;4.20;;;1.10;99.90;;;;;;5048895;28;20217;-69
2022/12/12 10:51:16;;;;;;;6.80;4.97;;;1.10;99.90;;;;;;5040124;28;20655;-69
2022/12/12 10:53:43;;;;;;;6.60;4.60;;;1.00;99.90;;;;;;5047211;28;20174;-69
2022/12/12 10:56:18;;;;;;;11.07;5.17;;;1.00;99.90;;;;;;5046298;28;20261;-70
2022/12/12 10:58:54;;;;;;;8.00;4.80;;;1.20;99.90;;;;;;5040292;28;20209;-69
2022/12/12 11:01:33;;;;;;;7.47;4.77;;;1.20;99.90;;;;;;5045860;28;20275;-69
2022/12/12 11:04:01;;;;;;;8.40;4.87;;;1.20;99.90;;;;;;5042918;28;20277;-69
2022/12/12 11:06:50;;;;;;;7.10;4.80;;;1.30;99.90;;;;;;5044639;28;20211;-68
2022/12/12 11:09:19;;;;;;;9.17;4.47;;;1.40;99.90;;;;;;5047352;28;20186;-68
2022/12/12 11:12:15;;;;;;;7.60;4.27;;;1.20;99.90;;;;;;5042972;28;20184;-68
2022/12/12 11:14:47;;;;;;;7.13;4.90;;;1.20;99.90;;;;;;5045370;28;20215;-71
2022/12/12 11:17:26;;;;;;;6.27;4.83;;;1.10;99.90;;;;;;5042903;28;20311;-71
2022/12/12 11:19:55;;;;;;;7.10;4.83;;;1.10;99.90;;;;;;5042521;28;20211;-69
2022/12/12 11:22:21;;;;;;;8.53;5.10;;;1.10;99.90;;;;;;5048464;28;20330;-69
2022/12/12 11:24:48;;;;;;;6.20;4.70;;;1.10;99.90;;;;;;5043139;28;20678;-68
2022/12/12 11:27:27;;;;;;;6.23;4.30;;;1.00;99.90;;;;;;5040458;28;20203;-69
2022/12/12 11:30:00;;;;;;;5.10;3.83;;;1.00;99.90;;;;;;5047817;28;20232;-68
2022/12/12 11:32:38;;;;;;;6.57;4.53;;;0.90;99.90;;;;;;5042512;28;20223;-69
2022/12/12 11:35:10;;;;;;;8.13;4.50;;;1.00;99.90;;;;;;5044714;28;20230;-69
2022/12/12 11:37:47;;;;;;;7.27;4.70;;;1.10;99.90;;;;;;5048509;28;20346;-69
2022/12/12 11:40:31;;;;;;;9.80;4.93;;;1.10;99.90;;;;;;5042734;28;20218;-69
2022/12/12 11:43:15;;;;;;;6.40;4.43;;;1.20;99.90;;;;;;5044604;28;20229;-68
2022/12/12 11:45:41;;;;;;;7.83;4.50;;;1.00;99.90;;;;;;5043612;28;20603;-69
2022/12/12 11:48:31;;;;;;;7.47;5.30;;;1.10;99.90;;;;;;5045825;28;20286;-70
2022/12/12 11:50:57;;;;;;;7.50;5.23;;;0.90;99.90;;;;;;5042004;28;20208;-69
2022/12/12 11:53:23;;;;;;;8.43;5.80;;;0.90;99.90;;;;;;5041687;28;20697;-69
2022/12/12 11:56:23;;;;;;;11.07;6.27;;;0.90;99.90;;;;;;5047281;28;20622;-69
2022/12/12 11:59:15;;;;;;;10.57;6.47;;;0.70;99.90;;;;;;5039934;28;20214;-69
2022/12/12 12:01:47;;;;;;;11.37;7.07;;;0.60;99.90;;;;;;5043799;28;20328;-70
2022/12/12 12:04:24;;;;;;;10.97;6.77;;;0.70;99.90;;;;;;5042284;28;20223;-69
2022/12/12 12:06:56;;;;;;;8.37;6.30;;;0.50;99.90;;;;;;5042020;28;20305;-69
2022/12/12 12:09:40;;;;;;;12.93;6.87;;;0.50;99.90;;;;;;5046386;28;20195;-69
2022/12/12 12:12:33;;;;;;;9.63;6.57;;;0.50;99.90;;;;;;5039673;28;20190;-69
2022/12/12 12:15:36;;;;;;;11.40;7.00;;;0.50;99.90;;;;;;5045045;28;20602;-70
2022/12/12 12:18:20;;;;;;;10.13;6.53;;;0.40;99.90;;;;;;5042436;28;20278;-70
2022/12/12 12:21:10;;;;;;;9.00;5.43;;;0.40;99.90;;;;;;5045203;28;20219;-70
2022/12/12 12:24:01;;;;;;;7.70;5.20;;;0.50;99.90;;;;;;5052444;28;20225;-69
2022/12/12 12:26:35;;;;;;;7.87;5.33;;;0.40;99.90;;;;;;5047954;28;20217;-70
2022/12/12 12:29:33;;;;;;;8.07;5.97;;;0.40;99.90;;;;;;5051144;28;20230;-71
2022/12/12 12:32:01;;;;;;;9.53;5.80;;;0.40;99.90;;;;;;5042586;28;20224;-70
2022/12/12 12:34:49;;;;;;;8.27;5.87;;;0.50;99.90;;;;;;5050406;28;20228;-70
2022/12/12 12:37:40;;;;;;;7.47;5.23;;;0.70;99.90;;;;;;5047950;28;20703;-70
2022/12/12 12:40:32;;;;;;;9.03;5.60;;;0.70;99.90;;;;;;5041180;28;20211;-70
2022/12/12 12:43:25;;;;;;;8.83;5.53;;;0.80;99.90;;;;;;5050200;28;20225;-70
2022/12/12 12:46:04;;;;;;;6.80;4.60;;;0.90;99.90;;;;;;5044552;28;20266;-70
2022/12/12 12:48:36;;;;;;;11.87;5.77;;;0.90;99.90;;;;;;5052463;28;20225;-70
2022/12/12 12:51:23;;;;;;;9.47;5.20;;;0.70;99.90;;;;;;5050703;28;20234;-71
2022/12/12 12:54:04;;;;;;;7.30;4.93;;;0.80;99.90;;;;;;5044954;28;20203;-70
2022/12/12 12:56:34;;;;;;;9.97;5.70;;;0.80;99.90;;;;;;5047285;28;20310;-70
2022/12/12 12:59:03;;;;;;;8.17;5.83;;;0.90;99.90;;;;;;5049166;28;20293;-70
2022/12/12 13:01:37;;;;;;;7.90;5.33;;;0.90;99.90;;;;;;5046942;28;20200;-70
2022/12/12 13:04:21;;;;;;;7.37;4.80;;;0.90;99.90;;;;;;5047881;28;20317;-71
2022/12/12 13:07:06;;;;;;;7.23;4.13;;;0.80;99.90;;;;;;5047828;28;20221;-70
2022/12/12 13:09:45;;;;;;;6.97;5.00;;;0.80;99.90;;;;;;5045931;28;20210;-70
2022/12/12 13:12:58;;;;;;;6.30;4.67;;;0.70;99.90;;;;;;5046164;28;20172;-70
2022/12/12 13:15:43;;;;;;;7.60;4.80;;;0.60;99.90;;;;;;5044628;28;20184;-71
2022/12/12 13:18:14;;;;;;;6.57;4.97;;;0.70;99.90;;;;;;5047897;28;20207;-70
2022/12/12 13:20:54;;;;;;;6.33;4.37;;;0.70;99.90;;;;;;5046562;28;20175;-70
2022/12/12 13:23:45;;;;;;;8.53;4.93;;;0.60;99.90;;;;;;5050490;28;20206;-70